createdAt,value
2019-03-04T00:02:25.143Z,53.90
2019-03-04T00:04:59.624Z,53.70
2019-03-04T00:07:34.382Z,54.00
2019-03-04T00:10:09.382Z,53.80
2019-03-04T00:12:43.782Z,53.70
2019-03-04T00:15:18.490Z,53.70
2019-03-04T00:17:53.446Z,53.60
2019-03-04T00:20:27.869Z,53.60
2019-03-04T00:23:02.839Z,53.60
2019-03-04T00:25:38.692Z,53.50
2019-03-04T00:28:16.421Z,53.60
2019-03-04T00:30:51.440Z,53.40
2019-03-04T00:33:25.840Z,53.70
2019-03-04T00:36:00.784Z,53.40
2019-03-04T00:38:35.665Z,53.60
2019-03-04T00:41:10.376Z,53.60
2019-03-04T00:43:45.292Z,53.50
2019-03-04T00:46:19.711Z,53.60
2019-03-04T00:48:54.628Z,53.50
2019-03-04T00:51:29.759Z,53.40
2019-03-04T00:54:04.437Z,53.40
2019-03-04T00:56:38.848Z,53.40
2019-03-04T00:59:13.880Z,53.30
2019-03-04T01:01:48.657Z,53.40
2019-03-04T01:04:23.764Z,53.20
2019-03-04T01:06:58.120Z,53.40
2019-03-04T01:09:33.008Z,53.30
2019-03-04T01:12:08.062Z,53.30
2019-03-04T01:14:42.747Z,53.40
2019-03-04T01:17:18.041Z,53.40
2019-03-04T01:19:52.867Z,53.30
2019-03-04T01:22:28.130Z,53.40
2019-03-04T01:25:02.987Z,53.30
2019-03-04T01:27:37.730Z,53.40
2019-03-04T01:30:18.767Z,53.40
2019-03-04T01:32:53.830Z,53.20
2019-03-04T01:35:28.219Z,53.40
2019-03-04T01:38:02.943Z,53.40
2019-03-04T01:40:37.631Z,53.10
2019-03-04T01:43:13.467Z,53.20
2019-03-04T01:45:47.934Z,53.20
2019-03-04T01:48:22.853Z,53.40
2019-03-04T01:50:57.881Z,53.20
2019-03-04T01:53:32.601Z,53.10
2019-03-04T01:56:07.523Z,53.10
2019-03-04T01:58:41.967Z,52.60
2019-03-04T02:01:16.611Z,52.80
2019-03-04T02:03:51.335Z,52.90
2019-03-04T02:06:26.139Z,52.80
2019-03-04T02:09:00.849Z,52.70
2019-03-04T02:11:37.155Z,52.70
2019-03-04T02:14:12.097Z,52.60
2019-03-04T02:16:47.055Z,52.50
2019-03-04T02:19:22.067Z,52.40
2019-03-04T02:21:57.116Z,52.60
2019-03-04T02:24:31.805Z,52.50
2019-03-04T02:27:06.781Z,52.50
2019-03-04T02:29:41.223Z,52.60
2019-03-04T02:32:15.898Z,52.50
2019-03-04T02:34:50.901Z,52.70
2019-03-04T02:37:25.310Z,52.60
2019-03-04T02:40:00.447Z,52.70
2019-03-04T02:42:35.174Z,52.60
2019-03-04T02:45:18.075Z,52.60
2019-03-04T02:47:52.864Z,52.50
2019-03-04T02:50:28.017Z,52.70
2019-03-04T02:53:02.407Z,52.70
2019-03-04T02:55:37.342Z,52.50
2019-03-04T02:58:12.111Z,52.80
2019-03-04T03:00:46.833Z,52.60
2019-03-04T03:03:21.587Z,52.60
2019-03-04T03:05:56.386Z,52.50
2019-03-04T03:08:32.381Z,52.50
2019-03-04T03:11:07.340Z,52.80
2019-03-04T03:13:42.242Z,52.80
2019-03-04T03:16:17.234Z,52.80
2019-03-04T03:18:52.190Z,52.80
2019-03-04T03:21:26.618Z,52.70
2019-03-04T03:24:01.325Z,52.80
2019-03-04T03:26:36.292Z,52.70
2019-03-04T03:29:11.113Z,52.80
2019-03-04T03:31:46.246Z,52.80
2019-03-04T03:34:20.628Z,52.80
2019-03-04T03:36:55.601Z,52.70
2019-03-04T03:39:30.495Z,52.60
2019-03-04T03:42:05.530Z,52.70
2019-03-04T03:44:41.224Z,52.70
2019-03-04T03:47:15.702Z,52.60
2019-03-04T03:49:50.379Z,52.50
2019-03-04T03:52:24.729Z,52.50
2019-03-04T03:54:59.402Z,52.50
2019-03-04T03:57:34.120Z,52.70
2019-03-04T04:00:12.364Z,52.50
2019-03-04T04:02:46.784Z,52.30
2019-03-04T04:05:21.461Z,52.40
2019-03-04T04:07:56.464Z,52.50
2019-03-04T04:10:30.866Z,52.30
2019-03-04T04:13:05.589Z,52.20
2019-03-04T04:15:40.393Z,52.20
2019-03-04T04:18:15.425Z,52.20
2019-03-04T04:20:50.140Z,52.30
2019-03-04T04:23:24.843Z,52.40
2019-03-04T04:25:59.529Z,52.40
2019-03-04T04:28:34.911Z,52.20
2019-03-04T04:31:09.838Z,52.40
2019-03-04T04:33:44.768Z,52.20
2019-03-04T04:36:19.710Z,52.90
2019-03-04T04:38:54.436Z,52.30
2019-03-04T04:41:29.346Z,52.30
2019-03-04T04:44:03.823Z,52.20
2019-03-04T04:46:49.762Z,52.10
2019-03-04T04:49:24.693Z,52.20
2019-03-04T04:51:59.670Z,52.40
2019-03-04T04:54:34.414Z,52.20
2019-03-04T04:57:09.108Z,52.40
2019-03-04T04:59:43.812Z,52.20
2019-03-04T05:02:18.486Z,52.30
2019-03-04T05:04:53.625Z,52.40
2019-03-04T05:07:28.024Z,52.20
2019-03-04T05:10:02.790Z,52.50
2019-03-04T05:12:37.500Z,52.30
2019-03-04T05:15:14.957Z,52.10
2019-03-04T05:17:49.670Z,52.20
2019-03-04T05:20:27.834Z,52.00
2019-03-04T05:23:02.960Z,52.00
2019-03-04T05:25:37.875Z,51.90
2019-03-04T05:28:13.778Z,51.80
2019-03-04T05:30:49.565Z,51.60
2019-03-04T05:33:23.973Z,51.70
2019-03-04T05:35:58.689Z,51.60
2019-03-04T05:38:33.651Z,52.40
2019-03-04T05:41:08.073Z,51.30
2019-03-04T05:43:43.831Z,51.00
2019-03-04T05:46:18.785Z,51.00
2019-03-04T05:48:53.750Z,50.80
2019-03-04T05:51:28.987Z,50.90
2019-03-04T05:54:03.936Z,51.00
2019-03-04T05:56:38.624Z,50.80
2019-03-04T05:59:19.710Z,51.00
2019-03-04T06:01:53.386Z,50.70
2019-03-04T06:04:28.281Z,50.80
2019-03-04T06:07:07.595Z,50.30
2019-03-04T06:09:42.397Z,50.40
2019-03-04T06:12:17.348Z,49.80
2019-03-04T06:14:52.110Z,49.90
2019-03-04T06:17:26.861Z,50.10
2019-03-04T06:20:01.973Z,50.10
2019-03-04T06:22:37.263Z,49.90
2019-03-04T06:25:14.278Z,49.60
2019-03-04T06:27:49.217Z,49.90
2019-03-04T06:30:29.682Z,50.10
2019-03-04T06:33:04.386Z,49.80
2019-03-04T06:35:39.300Z,50.00
2019-03-04T06:38:14.506Z,49.80
2019-03-04T06:40:49.204Z,49.40
2019-03-04T06:43:23.918Z,49.70
2019-03-04T06:45:58.830Z,49.80
2019-03-04T06:48:34.315Z,49.80
2019-03-04T06:51:30.291Z,49.50
2019-03-04T06:54:13.549Z,49.80
2019-03-04T06:56:57.208Z,49.80
2019-03-04T06:59:38.459Z,50.30
2019-03-04T07:02:22.941Z,50.10
2019-03-04T07:05:20.580Z,51.20
2019-03-04T07:07:56.328Z,50.40
2019-03-04T07:10:31.027Z,50.70
2019-03-04T07:13:05.768Z,50.90
2019-03-04T07:15:40.472Z,50.60
2019-03-04T07:18:15.575Z,50.90
2019-03-04T07:20:49.998Z,50.40
2019-03-04T07:23:24.681Z,50.40
2019-03-04T07:25:59.669Z,49.90
2019-03-04T07:28:34.566Z,50.00
2019-03-04T07:31:08.999Z,50.00
2019-03-04T07:33:44.974Z,49.80
2019-03-04T07:36:19.889Z,49.60
2019-03-04T07:38:56.429Z,49.70
2019-03-04T07:41:31.924Z,49.40
2019-03-04T07:44:06.591Z,49.10
2019-03-04T07:46:42.400Z,49.50
2019-03-04T07:49:17.313Z,50.50
2019-03-04T07:51:51.931Z,49.70
2019-03-04T07:54:26.622Z,49.70
2019-03-04T07:57:01.503Z,49.60
2019-03-04T07:59:36.399Z,49.90
2019-03-04T08:02:11.138Z,49.80
2019-03-04T08:04:45.804Z,50.00
2019-03-04T08:07:41.726Z,50.00
2019-03-04T08:10:37.410Z,50.30
2019-03-04T08:13:19.509Z,50.50
2019-03-04T08:15:54.319Z,50.10
2019-03-04T08:18:29.023Z,50.10
2019-03-04T08:21:03.983Z,50.00
2019-03-04T08:23:38.426Z,50.20
2019-03-04T08:26:14.245Z,50.20
2019-03-04T08:28:49.269Z,50.80
2019-03-04T08:31:24.289Z,51.00
2019-03-04T08:33:59.287Z,50.50
2019-03-04T08:36:33.965Z,50.80
2019-03-04T08:39:09.126Z,50.80
2019-03-04T08:41:44.213Z,50.70
2019-03-04T08:44:18.924Z,51.00
2019-03-04T08:46:53.546Z,50.70
2019-03-04T08:49:28.357Z,50.80
2019-03-04T08:52:03.030Z,50.70
2019-03-04T08:54:38.019Z,50.60
2019-03-04T08:57:13.336Z,50.10
2019-03-04T08:59:48.275Z,50.50
2019-03-04T09:02:23.047Z,49.50
2019-03-04T09:04:58.043Z,49.40
2019-03-04T09:07:32.434Z,49.20
2019-03-04T09:10:18.738Z,49.00
2019-03-04T09:12:53.248Z,49.10
2019-03-04T09:15:29.457Z,48.80
2019-03-04T09:18:04.283Z,49.00
2019-03-04T09:20:39.050Z,49.40
2019-03-04T09:23:14.544Z,49.40
2019-03-04T09:25:55.440Z,49.00
2019-03-04T09:28:30.250Z,49.20
2019-03-04T09:31:05.010Z,49.30
2019-03-04T09:33:40.187Z,49.80
2019-03-04T09:36:16.274Z,48.50
2019-03-04T09:38:51.216Z,49.00
2019-03-04T09:41:26.198Z,49.00
2019-03-04T09:44:02.240Z,49.10
2019-03-04T09:46:37.222Z,48.80
2019-03-04T09:49:12.182Z,49.00
2019-03-04T09:51:48.021Z,48.80
2019-03-04T09:54:22.553Z,49.00
2019-03-04T09:56:57.197Z,48.70
2019-03-04T09:59:32.174Z,49.00
2019-03-04T10:02:07.195Z,48.80
2019-03-04T10:04:44.831Z,48.80
2019-03-04T10:07:37.828Z,48.60
2019-03-04T10:10:31.832Z,48.50
2019-03-04T10:13:21.638Z,48.30
2019-03-04T10:16:18.292Z,48.20
2019-03-04T10:18:48.821Z,48.50
2019-03-04T10:21:27.035Z,49.10
2019-03-04T10:24:21.857Z,49.20
2019-03-04T10:27:16.923Z,49.10
2019-03-04T10:30:02.331Z,49.30
2019-03-04T10:32:47.211Z,49.10
2019-03-04T10:35:29.501Z,49.30
2019-03-04T10:38:22.562Z,49.80
2019-03-04T10:41:05.471Z,49.80
2019-03-04T10:43:43.729Z,49.30
2019-03-04T10:46:39.499Z,49.50
2019-03-04T10:49:14.300Z,50.00
2019-03-04T10:51:49.037Z,50.00
2019-03-04T10:54:24.091Z,49.90
2019-03-04T10:56:58.994Z,49.80
2019-03-04T10:59:33.842Z,50.10
2019-03-04T11:02:08.363Z,50.30
2019-03-04T11:04:43.427Z,49.80
2019-03-04T11:07:17.868Z,50.10
2019-03-04T11:09:52.864Z,50.80
2019-03-04T11:12:27.793Z,50.10
2019-03-04T11:15:02.560Z,50.20
2019-03-04T11:17:37.430Z,50.20
2019-03-04T11:20:13.392Z,50.20
2019-03-04T11:22:48.986Z,49.80
2019-03-04T11:25:23.955Z,49.80
2019-03-04T11:27:58.816Z,49.80
2019-03-04T11:30:33.962Z,50.10
2019-03-04T11:33:08.636Z,49.50
2019-03-04T11:35:43.479Z,50.20
2019-03-04T11:38:30.012Z,50.10
2019-03-04T11:41:05.853Z,50.20
2019-03-04T11:43:40.770Z,50.10
2019-03-04T11:46:15.873Z,50.40
2019-03-04T11:48:50.555Z,50.30
2019-03-04T11:51:25.549Z,50.30
2019-03-04T11:54:00.159Z,49.80
2019-03-04T11:56:35.158Z,49.80
2019-03-04T11:59:09.823Z,50.10
2019-03-04T12:01:46.769Z,50.50
2019-03-04T12:04:21.187Z,50.40
2019-03-04T12:06:55.917Z,50.10
2019-03-04T12:09:30.716Z,49.80
2019-03-04T12:12:05.423Z,49.50
2019-03-04T12:14:40.183Z,49.40
2019-03-04T12:17:16.184Z,49.60
2019-03-04T12:19:51.928Z,49.30
2019-03-04T12:22:26.765Z,48.90
2019-03-04T12:25:01.941Z,49.50
2019-03-04T12:27:37.319Z,49.00
2019-03-04T12:30:18.223Z,49.20
2019-03-04T12:32:53.691Z,49.00
2019-03-04T12:35:28.181Z,49.20
2019-03-04T12:38:03.194Z,49.60
2019-03-04T12:40:38.209Z,49.00
2019-03-04T12:43:14.083Z,48.50
2019-03-04T12:45:48.821Z,48.90
2019-03-04T12:48:23.745Z,48.90
2019-03-04T12:50:58.231Z,49.20
2019-03-04T12:53:37.373Z,49.50
2019-03-04T12:56:09.335Z,49.80
2019-03-04T12:58:44.289Z,49.50
2019-03-04T13:01:18.959Z,49.30
2019-03-04T13:03:53.459Z,50.10
2019-03-04T13:06:28.378Z,49.80
2019-03-04T13:09:13.877Z,49.70
2019-03-04T13:11:41.462Z,49.30
2019-03-04T13:14:16.161Z,49.10
2019-03-04T13:16:51.123Z,48.60
2019-03-04T13:19:25.583Z,48.10
2019-03-04T13:22:08.268Z,48.10
2019-03-04T13:24:36.846Z,48.70
2019-03-04T13:27:11.325Z,48.80
2019-03-04T13:29:47.324Z,48.90
2019-03-04T13:32:22.317Z,48.90
2019-03-04T13:34:57.093Z,49.40
2019-03-04T13:37:32.004Z,48.80
2019-03-04T13:40:09.684Z,48.90
2019-03-04T13:42:44.650Z,48.40
2019-03-04T13:45:19.436Z,49.70
2019-03-04T13:47:54.118Z,49.10
2019-03-04T13:50:32.855Z,48.80
2019-03-04T13:53:07.523Z,48.90
2019-03-04T13:55:42.188Z,47.90
2019-03-04T13:58:16.652Z,48.20
2019-03-04T14:00:51.346Z,48.10
2019-03-04T14:03:25.801Z,47.70
2019-03-04T14:06:00.735Z,48.10
2019-03-04T14:08:35.474Z,47.90
2019-03-04T14:11:10.223Z,48.10
2019-03-04T14:13:45.106Z,48.00
2019-03-04T14:16:19.614Z,48.10
2019-03-04T14:18:54.301Z,48.80
2019-03-04T14:21:29.447Z,49.00
2019-03-04T14:24:04.475Z,48.20
2019-03-04T14:26:39.203Z,48.20
2019-03-04T14:29:14.085Z,48.80
2019-03-04T14:31:48.609Z,48.00
2019-03-04T14:34:23.499Z,48.50
2019-03-04T14:36:58.581Z,48.50
2019-03-04T14:39:33.472Z,48.40
2019-03-04T14:42:08.550Z,48.00
2019-03-04T14:44:43.247Z,48.80
2019-03-04T14:47:17.691Z,48.40
2019-03-04T14:49:52.444Z,48.60
2019-03-04T14:52:27.685Z,48.10
2019-03-04T14:55:02.658Z,48.50
2019-03-04T14:57:37.589Z,48.60
2019-03-04T15:00:27.097Z,48.20
2019-03-04T15:03:01.836Z,48.50
2019-03-04T15:05:36.527Z,48.60
2019-03-04T15:08:13.524Z,48.30
2019-03-04T15:10:48.006Z,48.60
2019-03-04T15:13:22.933Z,48.20
2019-03-04T15:16:02.493Z,49.40
2019-03-04T15:18:35.146Z,49.20
2019-03-04T15:21:09.750Z,48.80
2019-03-04T15:23:51.069Z,49.00
2019-03-04T15:26:25.741Z,48.80
2019-03-04T15:29:01.741Z,48.90
2019-03-04T15:31:36.752Z,48.80
2019-03-04T15:34:11.744Z,49.10
2019-03-04T15:36:46.705Z,49.10
2019-03-04T15:39:23.308Z,48.80
2019-03-04T15:44:09.632Z,47.50
2019-03-04T15:46:43.395Z,42.50
2019-03-04T15:48:11.298Z,45.00
2019-03-04T15:49:05.996Z,43.60
2019-03-04T15:50:00.694Z,44.30
2019-03-04T15:50:56.672Z,38.70
2019-03-04T15:51:51.888Z,38.50
2019-03-04T15:52:46.718Z,39.60
2019-03-04T15:53:40.393Z,33.80
2019-03-04T15:54:35.225Z,39.40
2019-03-04T15:55:30.700Z,47.20
2019-03-04T15:56:26.070Z,36.60
2019-03-04T15:59:54.616Z,37.00
2019-03-04T16:02:29.205Z,39.40
2019-03-04T16:05:06.324Z,39.70
2019-03-04T16:07:41.832Z,39.30
2019-03-04T16:10:28.470Z,39.90
2019-03-04T16:13:03.190Z,39.70
2019-03-04T16:15:40.967Z,40.00
2019-03-04T16:18:15.769Z,40.20
2019-03-04T16:20:50.704Z,40.00
2019-03-04T16:23:25.357Z,40.30
2019-03-04T16:26:05.995Z,39.80
2019-03-04T16:28:41.873Z,40.20
2019-03-04T16:31:16.347Z,40.40
2019-03-04T16:33:51.064Z,40.70
2019-03-04T16:36:26.127Z,40.80
2019-03-04T16:39:01.176Z,40.30
2019-03-04T16:41:37.695Z,41.40
2019-03-04T16:44:13.139Z,41.00
2019-03-04T16:46:48.071Z,40.80
2019-03-04T16:49:23.347Z,41.20
2019-03-04T16:51:58.130Z,41.40
2019-03-04T16:54:32.893Z,41.70
2019-03-04T16:57:12.234Z,41.80
2019-03-04T16:59:47.186Z,42.80
2019-03-04T17:02:21.575Z,42.40
2019-03-04T17:04:56.397Z,41.70
2019-03-04T17:07:31.350Z,41.90
2019-03-04T17:10:09.518Z,40.90
2019-03-04T17:12:44.493Z,40.40
2019-03-04T17:15:23.304Z,39.80
2019-03-04T17:17:57.095Z,39.80
2019-03-04T17:20:31.449Z,39.80
2019-03-04T17:23:06.208Z,39.70
2019-03-04T17:25:41.034Z,39.60
2019-03-04T17:28:15.688Z,39.70
2019-03-04T17:30:50.394Z,39.10
2019-03-04T17:33:25.354Z,39.10
2019-03-04T17:36:00.164Z,39.10
2019-03-04T17:38:35.253Z,39.30
2019-03-04T17:41:10.542Z,38.20
2019-03-04T17:43:45.482Z,38.60
2019-03-04T17:46:20.306Z,38.60
2019-03-04T17:48:55.495Z,38.80
2019-03-04T17:51:30.239Z,39.10
2019-03-04T17:54:05.503Z,39.00
2019-03-04T17:56:40.625Z,38.90
2019-03-04T17:59:15.554Z,39.20
2019-03-04T18:01:50.391Z,37.90
2019-03-04T18:04:25.420Z,37.90
2019-03-04T18:07:00.166Z,39.10
2019-03-04T18:09:35.151Z,38.50
2019-03-04T18:12:09.589Z,38.50
2019-03-04T18:14:44.277Z,38.50
2019-03-04T18:17:19.283Z,38.60
2019-03-04T18:19:54.487Z,37.50
2019-03-04T18:22:29.485Z,38.30
2019-03-04T18:25:06.897Z,38.00
2019-03-04T18:27:44.072Z,38.30
2019-03-04T18:30:27.550Z,38.00
2019-03-04T18:33:11.677Z,37.50
2019-03-04T18:36:04.766Z,38.40
2019-03-04T18:38:48.341Z,38.60
2019-03-04T18:41:26.859Z,37.50
2019-03-04T18:44:21.005Z,37.50
2019-03-04T18:47:21.674Z,38.00
2019-03-04T18:49:56.565Z,38.40
2019-03-04T18:52:31.342Z,38.00
2019-03-04T18:55:08.381Z,38.20
2019-03-04T18:57:43.475Z,38.30
2019-03-04T19:00:22.131Z,38.80
2019-03-04T19:02:56.705Z,38.80
2019-03-04T19:05:32.015Z,39.00
2019-03-04T19:08:07.966Z,38.80
2019-03-04T19:10:42.784Z,38.70
2019-03-04T19:13:17.625Z,39.50
2019-03-04T19:15:52.694Z,39.20
2019-03-04T19:18:28.328Z,39.10
2019-03-04T19:21:03.146Z,38.50
2019-03-04T19:23:39.408Z,39.00
2019-03-04T19:26:14.243Z,39.40
2019-03-04T19:28:49.064Z,39.20
2019-03-04T19:31:23.782Z,39.50
2019-03-04T19:33:58.823Z,39.10
2019-03-04T19:36:34.092Z,39.00
2019-03-04T19:39:09.076Z,39.90
2019-03-04T19:41:44.103Z,39.00
2019-03-04T19:44:20.067Z,39.80
2019-03-04T19:46:54.850Z,39.80
2019-03-04T19:49:29.855Z,40.00
2019-03-04T19:52:05.066Z,39.80
2019-03-04T19:54:39.950Z,39.70
2019-03-04T19:57:14.922Z,39.70
2019-03-04T19:59:49.820Z,39.70
2019-03-04T20:02:24.444Z,39.70
2019-03-04T20:04:59.443Z,39.20
2019-03-04T20:07:34.699Z,38.20
2019-03-04T20:10:12.266Z,38.50
2019-03-04T20:12:47.696Z,37.70
2019-03-04T20:17:52.854Z,39.70
2019-03-04T20:20:27.353Z,38.20
2019-03-04T20:23:02.302Z,39.80
2019-03-04T20:25:37.076Z,39.90
2019-03-04T20:28:11.982Z,40.60
2019-03-04T20:30:47.857Z,40.20
2019-03-04T20:33:22.429Z,40.40
2019-03-04T20:35:57.342Z,41.00
2019-03-04T20:38:41.459Z,40.50
2019-03-04T20:41:16.588Z,40.70
2019-03-04T20:43:51.432Z,40.50
2019-03-04T20:46:26.335Z,40.40
2019-03-04T20:49:01.315Z,40.50
2019-03-04T20:51:36.231Z,40.50
2019-03-04T20:54:11.383Z,40.30
2019-03-04T20:56:46.068Z,40.70
2019-03-04T20:59:21.131Z,40.80
2019-03-04T21:01:56.101Z,41.40
2019-03-04T21:04:31.144Z,40.70
2019-03-04T21:07:06.178Z,40.70
2019-03-04T21:09:40.999Z,40.90
2019-03-04T21:12:16.041Z,40.90
2019-03-04T21:14:51.259Z,40.70
2019-03-04T21:17:26.087Z,40.80
2019-03-04T21:20:01.226Z,40.90
2019-03-04T21:22:36.589Z,40.90
2019-03-04T21:25:44.337Z,40.80
2019-03-04T21:28:22.582Z,40.70
2019-03-04T21:31:09.358Z,40.80
2019-03-04T21:34:10.859Z,40.80
2019-03-04T21:37:02.942Z,40.70
2019-03-04T21:39:48.338Z,40.50
2019-03-04T21:42:26.477Z,40.90
2019-03-04T21:45:10.264Z,40.80
2019-03-04T21:47:54.673Z,40.60
2019-03-04T21:50:38.465Z,41.00
2019-03-04T21:53:23.618Z,41.00
2019-03-04T21:56:17.917Z,41.10
2019-03-04T21:58:54.693Z,41.50
2019-03-04T22:01:38.516Z,41.10
2019-03-04T22:04:13.777Z,40.90
2019-03-04T22:06:48.770Z,40.70
2019-03-04T22:09:23.688Z,40.70
2019-03-04T22:11:58.657Z,40.80
2019-03-04T22:14:33.556Z,41.00
2019-03-04T22:17:08.312Z,41.00
2019-03-04T22:19:43.374Z,41.10
2019-03-04T22:22:17.770Z,40.30
2019-03-04T22:24:52.744Z,40.60
2019-03-04T22:27:28.537Z,40.80
2019-03-04T22:30:05.065Z,40.80
2019-03-04T22:32:39.861Z,40.70
2019-03-04T22:35:17.135Z,40.80
2019-03-04T22:37:52.809Z,40.50
2019-03-04T22:40:28.584Z,40.50
2019-03-04T22:43:02.973Z,40.70
2019-03-04T22:45:37.986Z,40.70
2019-03-04T22:48:13.892Z,40.80
2019-03-04T22:50:48.804Z,40.60
2019-03-04T22:53:23.719Z,40.40
2019-03-04T22:55:58.480Z,40.20
2019-03-04T22:58:33.627Z,40.40
2019-03-04T23:01:19.056Z,40.50
2019-03-04T23:03:57.550Z,40.20
2019-03-04T23:06:51.280Z,40.20
2019-03-04T23:09:29.036Z,40.70
2019-03-04T23:12:19.088Z,40.40
2019-03-04T23:14:54.396Z,40.40
2019-03-04T23:17:29.303Z,40.70
2019-03-04T23:20:05.468Z,40.40
2019-03-04T23:22:40.665Z,40.80
2019-03-04T23:25:15.739Z,40.20
2019-03-04T23:27:50.722Z,40.60
2019-03-04T23:30:25.730Z,40.80
2019-03-04T23:33:00.663Z,40.90
2019-03-04T23:35:35.711Z,41.10
2019-03-04T23:38:10.451Z,41.40
2019-03-04T23:40:45.159Z,41.10
2019-03-04T23:43:19.867Z,41.20
2019-03-04T23:45:54.595Z,41.50
2019-03-04T23:48:29.555Z,41.40
2019-03-04T23:51:04.542Z,41.50
2019-03-04T23:53:39.736Z,41.60
2019-03-04T23:56:14.680Z,41.70
2019-03-04T23:58:49.071Z,41.70
